createdAt,value
2019-05-17T00:00:02.222Z,12.3
2019-05-17T00:04:59.317Z,12.6
2019-05-17T00:09:57.076Z,12.2
2019-05-17T00:14:53.070Z,12.3
2019-05-17T00:19:49.962Z,12.2
2019-05-17T00:24:47.676Z,12.9
2019-05-17T00:29:46.390Z,12.5
2019-05-17T00:34:40.889Z,12.6
2019-05-17T00:39:38.017Z,12.8
2019-05-17T00:44:36.578Z,12.9
2019-05-17T00:49:32.012Z,12.8
2019-05-17T00:54:28.945Z,12.9
2019-05-17T00:59:26.277Z,12.6
2019-05-17T01:04:22.732Z,12.8
2019-05-17T01:09:20.217Z,12.1
2019-05-17T01:14:17.626Z,12.8
2019-05-17T01:19:16.221Z,12.8
2019-05-17T01:24:10.914Z,12.9
2019-05-17T01:29:07.846Z,12.8
2019-05-17T01:34:07.278Z,12.3
2019-05-17T01:39:14.269Z,12.3
2019-05-17T01:43:58.996Z,12.3
2019-05-17T01:48:57.702Z,12.7
2019-05-17T01:53:53.162Z,12.7
2019-05-17T01:58:50.754Z,12.2
2019-05-17T02:03:47.482Z,12.6
2019-05-17T02:08:47.335Z,12
2019-05-17T02:13:42.128Z,12.6
2019-05-17T02:18:39.181Z,12.5
2019-05-17T02:23:37.142Z,12.7
2019-05-17T02:28:33.400Z,12.5
2019-05-17T02:33:33.118Z,12.1
2019-05-17T02:38:27.923Z,12.5
2019-05-17T02:43:24.884Z,12.7
2019-05-17T02:48:23.207Z,12.7
2019-05-17T02:53:22.691Z,12.7
2019-05-17T02:58:16.443Z,12.8
2019-05-17T03:03:13.637Z,12.8
2019-05-17T03:08:12.248Z,12.3
2019-05-17T03:13:08.017Z,12.3
2019-05-17T03:18:04.763Z,12.7
2019-05-17T03:23:03.656Z,12.6
2019-05-17T03:27:58.532Z,12.3
2019-05-17T03:32:57.001Z,12.2
2019-05-17T03:37:53.401Z,12.7
2019-05-17T03:42:53.478Z,12.6
2019-05-17T03:47:46.866Z,12.8
2019-05-17T03:52:44.839Z,12.8
2019-05-17T03:57:43.954Z,12.5
2019-05-17T04:02:37.523Z,12.7
2019-05-17T04:07:34.870Z,12.7
2019-05-17T04:12:32.690Z,12.8
2019-05-17T04:17:29.124Z,12.7
2019-05-17T04:22:26.137Z,12.7
2019-05-17T04:27:23.232Z,12.7
2019-05-17T04:32:23.111Z,12.8
2019-05-17T04:37:17.174Z,12.7
2019-05-17T04:42:14.222Z,12.8
2019-05-17T04:47:13.342Z,12.8
2019-05-17T04:52:07.791Z,12.8
2019-05-17T04:57:04.663Z,12.8
2019-05-17T05:02:02.931Z,12.4
2019-05-17T05:06:59.139Z,12.9
2019-05-17T05:12:00.960Z,12.8
2019-05-17T05:16:53.340Z,12.4
2019-05-17T05:21:51.995Z,12.9
2019-05-17T05:26:47.876Z,12.2
2019-05-17T05:31:45.250Z,12.5
2019-05-17T05:36:42.386Z,12.5
2019-05-17T05:41:39.249Z,13
2019-05-17T05:46:36.534Z,13
2019-05-17T05:51:33.299Z,13.1
2019-05-17T05:56:32.437Z,13.1
2019-05-17T06:01:27.102Z,13.2
2019-05-17T06:06:23.862Z,13.3
2019-05-17T06:11:21.573Z,13.3
2019-05-17T06:16:17.619Z,13.2
2019-05-17T06:21:14.032Z,12.9
2019-05-17T06:26:12.323Z,13.4
2019-05-17T06:31:07.360Z,13.4
2019-05-17T06:36:04.733Z,8.4
2019-05-17T06:41:01.838Z,13
2019-05-17T06:45:58.908Z,13.6
2019-05-17T06:50:56.029Z,13.6
2019-05-17T06:55:53.397Z,13.7
2019-05-17T07:00:49.800Z,13.1
2019-05-17T07:05:46.566Z,13.8
2019-05-17T07:10:43.905Z,13.9
2019-05-17T07:15:47.010Z,14
2019-05-17T07:20:39.461Z,14.1
2019-05-17T07:25:35.487Z,14.1
2019-05-17T07:30:32.546Z,14.2
2019-05-17T07:35:30.059Z,14.3
2019-05-17T07:40:26.527Z,14.4
2019-05-17T07:45:24.208Z,14.4
2019-05-17T07:50:21.496Z,14.3
2019-05-17T07:55:22.389Z,14.5
2019-05-17T08:00:15.907Z,14.4
2019-05-17T08:05:12.314Z,14.6
2019-05-17T08:10:10.858Z,14.7
2019-05-17T08:15:06.870Z,13.9
2019-05-17T08:20:04.579Z,14.8
2019-05-17T08:25:02.025Z,14.9
2019-05-17T08:29:59.587Z,14.5
2019-05-17T08:34:55.766Z,15.1
2019-05-17T08:39:53.335Z,15.1
2019-05-17T08:44:50.318Z,15.2
2019-05-17T08:49:49.659Z,14.7
2019-05-17T08:54:44.599Z,15.3
2019-05-17T08:59:41.623Z,15.3
2019-05-17T09:04:40.467Z,15.4
2019-05-17T09:09:36.007Z,15.5
2019-05-17T09:14:32.682Z,15.5
2019-05-17T09:19:30.042Z,15.8
2019-05-17T09:24:29.891Z,15.9
2019-05-17T09:29:24.713Z,16
2019-05-17T09:34:22.495Z,11
2019-05-17T09:39:20.191Z,16.3
2019-05-17T09:44:17.528Z,16.6
2019-05-17T09:49:14.778Z,16.3
2019-05-17T09:54:12.353Z,16.3
2019-05-17T09:59:09.900Z,16.3
2019-05-17T10:04:06.347Z,17.1
2019-05-17T10:09:03.939Z,17.1
2019-05-17T10:14:01.407Z,17.2
2019-05-17T10:19:00.058Z,17.1
2019-05-17T10:23:55.413Z,17.1
2019-05-17T10:28:52.899Z,17.1
2019-05-17T10:33:49.605Z,17.1
2019-05-17T10:38:46.704Z,17.1
2019-05-17T10:43:43.661Z,17.1
2019-05-17T10:48:41.141Z,17.1
2019-05-17T10:53:40.125Z,17.2
2019-05-17T10:58:34.592Z,17.3
2019-05-17T11:03:31.647Z,17.4
2019-05-17T11:08:28.819Z,17.4
2019-05-17T11:13:26.877Z,17.4
2019-05-17T11:18:23.186Z,17.6
2019-05-17T11:23:20.266Z,17.6
2019-05-17T11:28:17.639Z,17.3
2019-05-17T11:33:15.153Z,17.9
2019-05-17T11:38:11.961Z,17.9
2019-05-17T11:43:08.838Z,17.9
2019-05-17T11:48:06.129Z,17.8
2019-05-17T11:53:03.213Z,17.9
2019-05-17T11:58:02.650Z,17.7
2019-05-17T12:02:59.143Z,18.3
2019-05-17T12:07:57.124Z,18.7
2019-05-17T12:12:54.441Z,18.8
2019-05-17T12:17:51.311Z,19
2019-05-17T12:22:48.532Z,19.1
2019-05-17T12:27:45.597Z,19.1
2019-05-17T12:32:42.777Z,19
2019-05-17T12:37:42.310Z,19.2
2019-05-17T12:42:37.134Z,19
2019-05-17T12:47:34.943Z,19.4
2019-05-17T12:52:32.095Z,18.8
2019-05-17T12:57:28.833Z,18.8
2019-05-17T13:02:25.780Z,19.1
2019-05-17T13:07:22.892Z,18.6
2019-05-17T13:12:20.086Z,18.9
2019-05-17T13:17:18.093Z,19.5
2019-05-17T13:22:15.670Z,19.6
2019-05-17T13:27:12.547Z,19.1
2019-05-17T13:32:09.793Z,19.2
2019-05-17T13:37:06.852Z,18.8
2019-05-17T13:42:03.917Z,19
2019-05-17T13:47:01.307Z,18.7
2019-05-17T13:51:58.003Z,19
2019-05-17T13:56:55.113Z,18.8
2019-05-17T14:01:52.032Z,18.8
2019-05-17T14:06:48.869Z,18.6
2019-05-17T14:11:45.566Z,18.4
2019-05-17T14:16:42.250Z,18.3
2019-05-17T14:21:39.036Z,18
2019-05-17T14:26:36.177Z,17.8
2019-05-17T14:31:33.139Z,17.6
2019-05-17T14:36:29.740Z,17.4
2019-05-17T14:41:27.435Z,17.1
2019-05-17T14:46:25.054Z,17.4
2019-05-17T14:51:20.307Z,17.2
2019-05-17T14:56:17.512Z,17.1
2019-05-17T15:01:15.042Z,16.8
2019-05-17T15:06:12.323Z,17
2019-05-17T15:11:08.962Z,17.1
2019-05-17T15:16:05.670Z,17.1
2019-05-17T15:21:03.191Z,16.5
2019-05-17T15:26:00.584Z,16.9
2019-05-17T15:30:57.633Z,17
2019-05-17T15:35:54.407Z,17
2019-05-17T15:40:51.252Z,16.9
2019-05-17T15:45:47.975Z,16.5
2019-05-17T15:50:44.665Z,16.7
2019-05-17T15:55:41.818Z,16.6
2019-05-17T16:00:38.798Z,16.6
2019-05-17T16:05:35.817Z,16.7
2019-05-17T16:10:32.557Z,16.7
2019-05-17T16:15:29.576Z,16.4
2019-05-17T16:20:26.461Z,16.7
2019-05-17T16:25:23.451Z,16.7
2019-05-17T16:30:20.267Z,16.7
2019-05-17T16:35:17.305Z,16.5
2019-05-17T16:40:14.221Z,16.4
2019-05-17T16:45:11.141Z,16.5
2019-05-17T16:50:07.940Z,16.3
2019-05-17T16:55:04.878Z,16.5
2019-05-17T17:00:02.209Z,16.6
2019-05-17T17:04:59.253Z,16.2
2019-05-17T17:09:56.204Z,16.6
2019-05-17T17:14:53.108Z,16.5
2019-05-17T17:19:50.024Z,16.4
2019-05-17T17:24:46.766Z,16.4
2019-05-17T17:29:43.554Z,16.5
2019-05-17T17:34:41.152Z,15.8
2019-05-17T17:39:37.516Z,16.2
2019-05-17T17:44:34.427Z,16.4
2019-05-17T17:49:31.072Z,16.2
2019-05-17T17:54:28.090Z,16.2
2019-05-17T17:59:25.008Z,16
2019-05-17T18:04:22.623Z,15.5
2019-05-17T18:09:19.083Z,15.5
2019-05-17T18:14:16.015Z,16
2019-05-17T18:19:13.541Z,16.1
2019-05-17T18:24:10.605Z,16.1
2019-05-17T18:29:08.121Z,16.1
2019-05-17T18:34:04.542Z,16.1
2019-05-17T18:39:01.599Z,16.1
2019-05-17T18:43:58.503Z,16.1
2019-05-17T18:48:55.371Z,16
2019-05-17T18:53:52.774Z,16
2019-05-17T18:58:49.610Z,16
2019-05-17T19:03:46.711Z,15.9
2019-05-17T19:08:43.700Z,15.9
2019-05-17T19:13:40.649Z,15.8
2019-05-17T19:18:37.600Z,15.3
2019-05-17T19:23:34.506Z,15.7
2019-05-17T19:28:30.828Z,15.7
2019-05-17T19:33:28.229Z,15.2
2019-05-17T19:38:24.922Z,15.7
2019-05-17T19:43:21.621Z,15.6
2019-05-17T19:48:19.824Z,15.7
2019-05-17T19:53:15.933Z,15.2
2019-05-17T19:58:12.440Z,15.7
2019-05-17T20:03:09.587Z,15.6
2019-05-17T20:08:06.621Z,15.6
2019-05-17T20:13:04.978Z,15.6
2019-05-17T20:18:01.123Z,15.6
2019-05-17T20:22:57.959Z,15.6
2019-05-17T20:27:54.918Z,15.6
2019-05-17T20:32:51.726Z,15.4
2019-05-17T20:37:48.736Z,15.6
2019-05-17T20:42:45.694Z,15.5
2019-05-17T20:47:42.550Z,15.5
2019-05-17T20:52:39.471Z,15.5
2019-05-17T20:57:36.484Z,15.4
2019-05-17T21:02:33.655Z,15.4
2019-05-17T21:07:30.579Z,15.4
2019-05-17T21:12:27.606Z,15.3
2019-05-17T21:17:24.584Z,15.3
2019-05-17T21:22:21.538Z,15.3
2019-05-17T21:27:18.408Z,15.2
2019-05-17T21:32:15.858Z,14.7
2019-05-17T21:37:12.743Z,14.5
2019-05-17T21:42:09.599Z,14.9
2019-05-17T21:47:06.525Z,15
2019-05-17T21:52:03.465Z,14.9
2019-05-17T21:57:00.379Z,15
2019-05-17T22:01:57.150Z,14.9
2019-05-17T22:11:54.864Z,14.9
2019-05-17T22:16:51.654Z,14.9
2019-05-17T22:21:48.799Z,14.8
2019-05-17T22:26:45.825Z,14.6
2019-05-17T22:31:42.418Z,14.6
2019-05-17T22:36:39.425Z,14.7
2019-05-17T22:41:36.290Z,14.6
2019-05-17T22:46:35.876Z,14.6
2019-05-17T22:51:30.165Z,14.5
2019-05-17T22:56:27.573Z,13.9
2019-05-17T23:01:24.203Z,14.4
2019-05-17T23:06:21.610Z,14
2019-05-17T23:11:18.128Z,14.4
2019-05-17T23:16:14.869Z,14.3
2019-05-17T23:21:11.666Z,14.4
2019-05-17T23:26:08.627Z,14.4
2019-05-17T23:31:05.662Z,14.4
2019-05-17T23:36:02.773Z,14.3
2019-05-17T23:40:59.468Z,14.4
2019-05-17T23:45:56.558Z,14.3
2019-05-17T23:50:53.428Z,14.3
2019-05-17T23:55:50.417Z,14.3
